createdAt,value
2017-09-01T00:00:15.131Z,61.85
2017-09-01T00:00:55.588Z,61.94
2017-09-01T00:01:36.080Z,62.04
2017-09-01T00:02:16.533Z,61.85
2017-09-01T00:02:56.970Z,61.85
2017-09-01T00:03:37.416Z,61.94
2017-09-01T00:04:17.871Z,61.85
2017-09-01T00:04:58.324Z,61.91
2017-09-01T00:05:38.776Z,61.82
2017-09-01T00:06:19.231Z,61.55
2017-09-01T00:06:59.682Z,61.82
2017-09-01T00:07:40.143Z,61.85
2017-09-01T00:08:20.600Z,61.94
2017-09-01T00:09:01.055Z,61.62
2017-09-01T00:09:41.522Z,61.46
2017-09-01T00:10:21.979Z,61.46
2017-09-01T00:11:02.431Z,61.65
2017-09-01T00:11:42.884Z,61.55
2017-09-01T00:12:23.347Z,61.52
2017-09-01T00:13:03.801Z,61.55
2017-09-01T00:13:44.256Z,61.55
2017-09-01T00:14:24.713Z,61.46
2017-09-01T00:15:05.170Z,61.55
2017-09-01T00:15:45.632Z,61.36
2017-09-01T00:16:26.104Z,61.85
2017-09-01T00:17:06.570Z,61.85
2017-09-01T00:17:47.018Z,61.85
2017-09-01T00:18:27.587Z,61.75
2017-09-01T00:19:08.045Z,61.75
2017-09-01T00:19:48.501Z,61.65
2017-09-01T00:20:28.961Z,61.65
2017-09-01T00:21:09.418Z,61.65
2017-09-01T00:21:49.882Z,61.65
2017-09-01T00:22:30.326Z,61.55
2017-09-01T00:23:10.787Z,61.72
2017-09-01T00:23:51.243Z,61.55
2017-09-01T00:24:31.710Z,61.65
2017-09-01T00:25:12.172Z,61.85
2017-09-01T00:25:52.627Z,61.55
2017-09-01T00:26:33.083Z,61.75
2017-09-01T00:27:13.556Z,61.85
2017-09-01T00:27:54.018Z,61.85
2017-09-01T00:28:34.554Z,61.94
2017-09-01T00:29:15.005Z,61.85
2017-09-01T00:29:55.461Z,61.94
2017-09-01T00:30:36.037Z,61.46
2017-09-01T00:31:16.496Z,61.85
2017-09-01T00:31:56.941Z,61.72
2017-09-01T00:32:37.392Z,61.46
2017-09-01T00:33:17.848Z,61.55
2017-09-01T00:33:58.307Z,61.65
2017-09-01T00:34:38.749Z,61.75
2017-09-01T00:35:19.201Z,61.94
2017-09-01T00:35:59.653Z,61.46
2017-09-01T00:36:40.101Z,61.65
2017-09-01T00:37:20.546Z,61.43
2017-09-01T00:38:01.011Z,61.46
2017-09-01T00:38:41.469Z,61.55
2017-09-01T00:39:21.932Z,61.65
2017-09-01T00:40:02.380Z,61.46
2017-09-01T00:40:42.830Z,61.55
2017-09-01T00:41:23.281Z,61.43
2017-09-01T00:42:03.731Z,61.65
2017-09-01T00:42:44.191Z,61.75
2017-09-01T00:43:24.634Z,61.55
2017-09-01T00:44:05.090Z,61.46
2017-09-01T00:44:45.542Z,61.36
2017-09-01T00:45:26.145Z,61.46
2017-09-01T00:46:06.589Z,61.43
2017-09-01T00:46:47.040Z,61.65
2017-09-01T00:47:27.619Z,61.65
2017-09-01T00:48:08.074Z,61.65
2017-09-01T00:48:48.532Z,61.65
2017-09-01T00:49:29.064Z,61.36
2017-09-01T00:50:09.524Z,61.72
2017-09-01T00:50:49.977Z,61.46
2017-09-01T00:51:30.410Z,61.33
2017-09-01T00:52:10.867Z,61.55
2017-09-01T00:52:51.317Z,61.33
2017-09-01T00:53:31.776Z,61.55
2017-09-01T00:54:12.232Z,61.46
2017-09-01T00:54:52.688Z,61.75
2017-09-01T00:55:33.146Z,61.36
2017-09-01T00:56:13.593Z,61.94
2017-09-01T00:56:54.062Z,61.43
2017-09-01T00:57:34.495Z,61.75
2017-09-01T00:58:14.953Z,61.43
2017-09-01T00:58:55.392Z,61.62
2017-09-01T00:59:35.846Z,61.72
2017-09-01T01:00:16.305Z,61.75
2017-09-01T01:00:56.762Z,61.85
2017-09-01T01:01:37.219Z,61.85
2017-09-01T01:02:17.675Z,61.55
2017-09-01T01:02:58.133Z,61.91
2017-09-01T01:03:38.591Z,61.75
2017-09-01T01:04:19.052Z,61.55
2017-09-01T01:04:59.501Z,61.65
2017-09-01T01:05:39.974Z,61.33
2017-09-01T01:06:20.430Z,61.62
2017-09-01T01:07:00.893Z,61.75
2017-09-01T01:07:41.349Z,61.72
2017-09-01T01:08:21.801Z,61.43
2017-09-01T01:09:02.262Z,61.43
2017-09-01T01:09:42.705Z,61.52
2017-09-01T01:10:23.174Z,61.72
2017-09-01T01:11:03.632Z,61.72
2017-09-01T01:11:44.081Z,61.43
2017-09-01T01:12:24.545Z,61.85
2017-09-01T01:13:04.994Z,61.43
2017-09-01T01:13:45.446Z,61.43
2017-09-01T01:14:25.900Z,61.52
2017-09-01T01:15:06.354Z,61.72
2017-09-01T01:15:46.801Z,61.62
2017-09-01T01:16:27.255Z,61.52
2017-09-01T01:17:07.709Z,61.62
2017-09-01T01:17:48.160Z,61.43
2017-09-01T01:18:28.619Z,61.43
2017-09-01T01:19:09.078Z,61.43
2017-09-01T01:19:49.541Z,61.62
2017-09-01T01:20:29.995Z,61.52
2017-09-01T01:21:10.487Z,61.62
2017-09-01T01:21:50.894Z,61.91
2017-09-01T01:22:31.340Z,61.62
2017-09-01T01:23:11.801Z,61.52
2017-09-01T01:23:52.261Z,61.82
2017-09-01T01:24:32.715Z,62.01
2017-09-01T01:25:13.177Z,61.91
2017-09-01T01:25:53.632Z,61.91
2017-09-01T01:26:34.076Z,61.91
2017-09-01T01:27:14.537Z,61.72
2017-09-01T01:27:54.987Z,61.91
2017-09-01T01:28:35.421Z,61.82
2017-09-01T01:29:15.905Z,61.82
2017-09-01T01:29:56.331Z,61.91
2017-09-01T01:30:36.787Z,62.01
2017-09-01T01:31:17.243Z,61.82
2017-09-01T01:31:57.697Z,61.91
2017-09-01T01:32:38.143Z,61.82
2017-09-01T01:33:18.591Z,61.91
2017-09-01T01:33:59.048Z,62.01
2017-09-01T01:34:39.505Z,62.01
2017-09-01T01:35:19.953Z,62.01
2017-09-01T01:36:00.409Z,62.01
2017-09-01T01:36:40.865Z,62.01
2017-09-01T01:37:21.320Z,61.82
2017-09-01T01:38:01.788Z,62.01
2017-09-01T01:38:42.231Z,62.01
2017-09-01T01:39:22.711Z,62.1
2017-09-01T01:40:03.194Z,62.01
2017-09-01T01:40:43.651Z,61.91
2017-09-01T01:41:24.114Z,61.91
2017-09-01T01:42:04.568Z,61.91
2017-09-01T01:42:45.030Z,61.91
2017-09-01T01:43:25.477Z,61.91
2017-09-01T01:44:05.935Z,61.91
2017-09-01T01:44:46.380Z,61.91
2017-09-01T01:45:26.906Z,61.91
2017-09-01T01:46:07.361Z,61.91
2017-09-01T01:46:47.823Z,61.91
2017-09-01T01:47:28.276Z,62.49
2017-09-01T01:48:08.725Z,62.4
2017-09-01T01:48:49.183Z,62.49
2017-09-01T01:49:29.638Z,61.82
2017-09-01T01:50:10.109Z,62.4
2017-09-01T01:50:50.552Z,62.4
2017-09-01T01:51:31.013Z,62.4
2017-09-01T01:52:11.465Z,62.1
2017-09-01T01:52:51.916Z,62.3
2017-09-01T01:53:32.379Z,62.2
2017-09-01T01:54:12.828Z,62.2
2017-09-01T01:54:53.283Z,62.3
2017-09-01T01:55:33.745Z,62.3
2017-09-01T01:56:14.203Z,62.3
2017-09-01T01:56:54.661Z,62.4
2017-09-01T01:57:35.113Z,62.1
2017-09-01T01:58:15.567Z,62.3
2017-09-01T01:58:56.019Z,62.4
2017-09-01T01:59:36.451Z,62.2
2017-09-01T02:00:16.898Z,62.49
2017-09-01T02:00:57.350Z,62.59
2017-09-01T02:01:37.799Z,62.59
2017-09-01T02:02:18.261Z,62.3
2017-09-01T02:02:58.716Z,62.69
2017-09-01T02:03:39.181Z,62.4
2017-09-01T02:04:19.626Z,62.4
2017-09-01T02:05:00.081Z,62.3
2017-09-01T02:05:40.534Z,62.4
2017-09-01T02:06:20.988Z,62.4
2017-09-01T02:07:01.542Z,62.49
2017-09-01T02:07:41.929Z,62.49
2017-09-01T02:08:22.394Z,62.4
2017-09-01T02:09:02.858Z,62.3
2017-09-01T02:09:43.296Z,62.3
2017-09-01T02:10:23.748Z,62.4
2017-09-01T02:11:04.200Z,62.2
2017-09-01T02:11:44.649Z,62.3
2017-09-01T02:12:25.094Z,62.4
2017-09-01T02:13:05.552Z,62.4
2017-09-01T02:13:46.010Z,62.4
2017-09-01T02:14:26.496Z,62.3
2017-09-01T02:15:06.948Z,62.4
2017-09-01T02:15:47.399Z,62.4
2017-09-01T02:16:27.853Z,62.4
2017-09-01T02:17:08.306Z,62.3
2017-09-01T02:17:48.763Z,62.49
2017-09-01T02:18:29.218Z,62.37
2017-09-01T02:19:09.682Z,62.27
2017-09-01T02:19:50.129Z,62.4
2017-09-01T02:20:30.587Z,62.27
2017-09-01T02:21:11.042Z,62.4
2017-09-01T02:21:51.499Z,62.4
2017-09-01T02:22:31.946Z,62.4
2017-09-01T02:23:12.398Z,62.3
2017-09-01T02:23:52.856Z,62.17
2017-09-01T02:24:33.316Z,62.46
2017-09-01T02:25:13.761Z,62.3
2017-09-01T02:25:54.211Z,62.27
2017-09-01T02:26:34.683Z,62.27
2017-09-01T02:27:15.141Z,62.27
2017-09-01T02:27:55.589Z,62.2
2017-09-01T02:28:36.037Z,62.27
2017-09-01T02:29:16.695Z,62.3
2017-09-01T02:29:57.151Z,62.3
2017-09-01T02:30:37.590Z,62.27
2017-09-01T02:31:18.075Z,62.17
2017-09-01T02:31:58.514Z,62.4
2017-09-01T02:32:38.975Z,62.2
2017-09-01T02:34:51.818Z,62.37
2017-09-01T02:35:32.261Z,62.27
2017-09-01T02:36:12.717Z,62.46
2017-09-01T02:36:53.172Z,62.2
2017-09-01T02:37:33.630Z,62.2
2017-09-01T02:38:14.085Z,62.37
2017-09-01T02:38:54.532Z,62.37
2017-09-01T02:39:35.058Z,62.17
2017-09-01T02:40:15.519Z,62.46
2017-09-01T02:40:55.970Z,62.37
2017-09-01T02:41:36.419Z,62.46
2017-09-01T02:42:16.869Z,62.37
2017-09-01T02:42:57.322Z,62.37
2017-09-01T02:43:37.773Z,62.27
2017-09-01T02:44:18.226Z,62.07
2017-09-01T02:44:58.678Z,62.46
2017-09-01T02:45:39.129Z,62.37
2017-09-01T02:46:19.581Z,62.27
2017-09-01T02:47:00.037Z,62.1
2017-09-01T02:47:40.480Z,62.07
2017-09-01T02:48:20.933Z,62.2
2017-09-01T02:49:01.398Z,62.17
2017-09-01T02:49:41.846Z,62.27
2017-09-01T02:50:22.318Z,62.17
2017-09-01T02:51:02.785Z,62.27
2017-09-01T02:51:43.241Z,62.2
2017-09-01T02:52:23.695Z,62.27
2017-09-01T02:53:04.147Z,62.2
2017-09-01T02:53:44.603Z,62.4
2017-09-01T02:54:25.061Z,62.46
2017-09-01T02:55:05.518Z,62.46
2017-09-01T02:55:45.969Z,62.27
2017-09-01T02:56:26.425Z,62.27
2017-09-01T02:57:06.881Z,62.2
2017-09-01T02:57:47.345Z,62.49
2017-09-01T02:58:27.800Z,62.3
2017-09-01T02:59:08.261Z,62.4
2017-09-01T02:59:48.728Z,62.3
2017-09-01T03:00:29.178Z,62.37
2017-09-01T03:01:09.637Z,62.37
2017-09-01T03:01:50.074Z,62.1
2017-09-01T03:02:30.525Z,62.37
2017-09-01T03:03:10.972Z,62.3
2017-09-01T03:03:51.423Z,62.37
2017-09-01T03:04:31.998Z,62.37
2017-09-01T03:05:12.440Z,62.37
2017-09-01T03:05:52.877Z,62.37
2017-09-01T03:06:33.358Z,62.37
2017-09-01T03:07:13.806Z,62.37
2017-09-01T03:07:54.258Z,62.17
2017-09-01T03:08:34.720Z,62.37
2017-09-01T03:09:15.169Z,62.17
2017-09-01T03:09:55.635Z,62.2
2017-09-01T03:10:36.098Z,62.17
2017-09-01T03:11:16.571Z,62.27
2017-09-01T03:11:57.040Z,62.17
2017-09-01T03:12:37.479Z,62.17
2017-09-01T03:13:17.935Z,62.37
2017-09-01T03:13:58.392Z,62.07
2017-09-01T03:14:38.853Z,62.37
2017-09-01T03:15:19.301Z,62.27
2017-09-01T03:15:59.770Z,62.66
2017-09-01T03:16:40.278Z,62.66
2017-09-01T03:17:20.731Z,62.27
2017-09-01T03:18:01.228Z,62.46
2017-09-01T03:18:41.685Z,62.56
2017-09-01T03:19:22.135Z,62.56
2017-09-01T03:20:02.590Z,62.27
2017-09-01T03:20:43.048Z,62.27
2017-09-01T03:21:23.501Z,62.27
2017-09-01T03:22:03.992Z,62.66
2017-09-01T03:23:51.511Z,62.27
2017-09-01T03:24:31.973Z,62.27
2017-09-01T03:25:12.433Z,62.27
2017-09-01T03:25:52.885Z,62.17
2017-09-01T03:26:33.336Z,62.37
2017-09-01T03:27:13.792Z,62.37
2017-09-01T03:27:54.251Z,62.75
2017-09-01T03:28:34.694Z,62.37
2017-09-01T03:29:15.156Z,62.46
2017-09-01T03:29:55.615Z,62.46
2017-09-01T03:30:36.068Z,62.46
2017-09-01T03:31:16.510Z,62.66
2017-09-01T03:31:56.967Z,62.75
2017-09-01T03:32:37.433Z,62.75
2017-09-01T03:33:17.880Z,62.85
2017-09-01T03:33:58.323Z,62.85
2017-09-01T03:34:38.790Z,62.85
2017-09-01T03:35:19.244Z,62.75
2017-09-01T03:35:59.698Z,62.75
2017-09-01T03:36:40.145Z,62.85
2017-09-01T03:37:20.603Z,62.66
2017-09-01T03:38:01.146Z,62.37
2017-09-01T03:38:41.494Z,62.85
2017-09-01T03:39:21.967Z,62.85
2017-09-01T03:40:02.427Z,62.56
2017-09-01T03:40:42.896Z,62.85
2017-09-01T03:41:23.351Z,62.66
2017-09-01T03:42:03.816Z,62.85
2017-09-01T03:42:44.289Z,62.66
2017-09-01T03:43:24.744Z,62.56
2017-09-01T03:44:05.289Z,62.37
2017-09-01T03:44:45.749Z,62.66
2017-09-01T03:45:26.211Z,62.46
2017-09-01T03:46:06.658Z,62.46
2017-09-01T03:46:47.118Z,62.46
2017-09-01T03:47:27.575Z,62.46
2017-09-01T03:48:08.019Z,62.56
2017-09-01T03:48:48.480Z,62.56
2017-09-01T03:49:28.934Z,62.46
2017-09-01T03:50:09.376Z,62.46
2017-09-01T03:50:49.833Z,62.46
2017-09-01T03:51:30.282Z,62.37
2017-09-01T03:52:10.806Z,62.56
2017-09-01T03:52:51.264Z,62.46
2017-09-01T03:53:31.720Z,62.46
2017-09-01T03:54:12.165Z,62.75
2017-09-01T03:54:52.640Z,62.37
2017-09-01T03:55:33.091Z,62.46
2017-09-01T03:56:13.555Z,62.56
2017-09-01T03:56:53.992Z,62.85
2017-09-01T03:57:34.463Z,62.95
2017-09-01T03:58:14.897Z,62.46
2017-09-01T03:58:55.346Z,62.56
2017-09-01T03:59:35.819Z,62.95
2017-09-01T04:00:16.254Z,62.56
2017-09-01T04:00:56.733Z,62.66
2017-09-01T04:01:37.194Z,62.75
2017-09-01T04:02:17.643Z,62.75
2017-09-01T04:02:58.099Z,62.66
2017-09-01T04:03:38.557Z,62.75
2017-09-01T04:04:19.007Z,63.04
2017-09-01T04:04:59.464Z,62.95
2017-09-01T04:05:39.930Z,63.04
2017-09-01T04:06:20.390Z,62.95
2017-09-01T04:07:00.839Z,62.92
2017-09-01T04:07:41.323Z,62.92
2017-09-01T04:08:21.765Z,63.01
2017-09-01T04:09:02.209Z,62.92
2017-09-01T04:09:42.667Z,63.24
2017-09-01T04:10:23.181Z,63.43
2017-09-01T04:11:03.632Z,63.69
2017-09-01T04:11:44.087Z,63.24
2017-09-01T04:12:24.535Z,63.21
2017-09-01T04:13:04.992Z,63.21
2017-09-01T04:13:45.442Z,63.53
2017-09-01T04:14:25.892Z,63.34
2017-09-01T04:15:06.352Z,63.43
2017-09-01T04:15:46.807Z,63.14
2017-09-01T04:16:27.259Z,63.11
2017-09-01T04:17:07.714Z,63.43
2017-09-01T04:17:48.178Z,63.11
2017-09-01T04:18:28.622Z,63.11
2017-09-01T04:19:09.064Z,63.21
2017-09-01T04:19:49.515Z,63.21
2017-09-01T04:20:29.969Z,63.21
2017-09-01T04:21:10.417Z,63.01
2017-09-01T04:21:50.866Z,63.21
2017-09-01T04:22:31.357Z,63.11
2017-09-01T04:23:11.812Z,63.01
2017-09-01T04:23:52.267Z,63.21
2017-09-01T04:24:32.734Z,63.31
2017-09-01T04:25:13.189Z,63.14
2017-09-01T04:25:53.634Z,63.21
2017-09-01T04:26:34.093Z,63.31
2017-09-01T04:27:14.544Z,63.21
2017-09-01T04:27:55.001Z,63.21
2017-09-01T04:28:35.459Z,63.01
2017-09-01T04:29:15.907Z,63.14
2017-09-01T04:29:56.367Z,63.01
2017-09-01T04:30:36.812Z,63.21
2017-09-01T04:31:17.258Z,63.21
2017-09-01T04:31:57.734Z,62.82
2017-09-01T04:32:38.202Z,63.01
2017-09-01T04:33:18.702Z,62.92
2017-09-01T04:33:59.157Z,63.01
2017-09-01T04:34:39.615Z,62.92
2017-09-01T04:35:20.076Z,63.01
2017-09-01T04:36:00.525Z,63.01
2017-09-01T04:36:40.970Z,63.21
2017-09-01T04:37:21.424Z,63.21
2017-09-01T04:38:02.088Z,63.01
2017-09-01T04:38:42.449Z,63.11
2017-09-01T04:39:22.912Z,63.01
2017-09-01T04:40:03.393Z,63.11
2017-09-01T04:40:43.845Z,63.11
2017-09-01T04:41:24.358Z,63.11
2017-09-01T04:42:04.831Z,63.21
2017-09-01T04:42:45.286Z,63.21
2017-09-01T04:43:25.740Z,63.21
2017-09-01T04:44:06.255Z,63.21
2017-09-01T04:44:46.711Z,63.21
2017-09-01T04:45:27.165Z,63.21
2017-09-01T04:46:07.630Z,63.21
2017-09-01T04:46:48.081Z,63.21
2017-09-01T04:47:28.541Z,63.21
2017-09-01T04:48:08.997Z,63.21
2017-09-01T04:48:49.465Z,63.11
2017-09-01T04:49:29.921Z,63.01
2017-09-01T04:50:10.365Z,63.01
2017-09-01T04:50:50.816Z,63.11
2017-09-01T04:51:31.268Z,63.21
2017-09-01T04:52:11.709Z,63.21
2017-09-01T04:52:52.170Z,63.21
2017-09-01T04:53:32.638Z,62.92
2017-09-01T04:54:13.088Z,63.21
2017-09-01T04:54:53.652Z,63.11
2017-09-01T04:55:34.094Z,63.01
2017-09-01T04:56:14.544Z,63.01
2017-09-01T04:56:55.007Z,63.01
2017-09-01T04:57:35.464Z,63.4
2017-09-01T04:58:15.925Z,63.11
2017-09-01T04:58:56.375Z,63.01
2017-09-01T04:59:36.827Z,63.21
2017-09-01T05:00:17.286Z,63.01
2017-09-01T05:00:57.730Z,63.01
2017-09-01T05:01:38.188Z,63.11
2017-09-01T05:02:18.633Z,63.01
2017-09-01T05:02:59.075Z,63.21
2017-09-01T05:03:39.530Z,63.21
2017-09-01T05:04:19.983Z,63.01
2017-09-01T05:05:00.417Z,63.01
2017-09-01T05:05:40.863Z,63.01
2017-09-01T05:06:21.321Z,63.11
2017-09-01T05:07:01.770Z,63.21
2017-09-01T05:07:42.226Z,63.01
2017-09-01T05:08:22.679Z,63.21
2017-09-01T05:09:03.137Z,63.21
2017-09-01T05:09:43.585Z,63.11
2017-09-01T05:10:24.038Z,63.01
2017-09-01T05:11:04.500Z,63.21
2017-09-01T05:11:44.940Z,63.01
2017-09-01T05:12:25.397Z,63.01
2017-09-01T05:13:05.888Z,63.11
2017-09-01T05:13:46.330Z,63.11
2017-09-01T05:14:26.812Z,63.01
2017-09-01T05:15:07.349Z,63.21
2017-09-01T05:15:47.802Z,63.01
2017-09-01T05:16:28.259Z,63.01
2017-09-01T05:17:08.712Z,63.21
2017-09-01T05:17:49.172Z,63.11
2017-09-01T05:18:29.630Z,63.01
2017-09-01T05:19:10.093Z,63.21
2017-09-01T05:19:50.548Z,63.21
2017-09-01T05:20:31.043Z,63.01
2017-09-01T05:21:11.510Z,63.31
2017-09-01T05:21:51.963Z,63.21
2017-09-01T05:22:32.408Z,63.11
2017-09-01T05:23:12.868Z,63.11
2017-09-01T05:23:53.330Z,63.01
2017-09-01T05:24:33.774Z,63.21
2017-09-01T05:25:14.228Z,63.11
2017-09-01T05:25:54.683Z,63.21
2017-09-01T05:26:35.142Z,62.92
2017-09-01T05:27:15.592Z,63.21
2017-09-01T05:27:56.047Z,63.21
2017-09-01T05:28:36.501Z,63.01
2017-09-01T05:29:16.959Z,63.11
2017-09-01T05:29:57.410Z,63.01
2017-09-01T05:30:37.864Z,63.11
2017-09-01T05:31:18.304Z,63.11
2017-09-01T05:31:58.773Z,63.11
2017-09-01T05:32:39.232Z,63.11
2017-09-01T05:33:19.690Z,62.92
2017-09-01T05:34:00.153Z,62.92
2017-09-01T05:34:40.606Z,63.01
2017-09-01T05:35:21.056Z,63.31
2017-09-01T05:36:01.503Z,63.04
2017-09-01T05:36:41.961Z,63.21
2017-09-01T05:37:22.404Z,63.01
2017-09-01T05:38:02.850Z,63.21
2017-09-01T05:38:43.324Z,63.11
2017-09-01T05:39:23.790Z,63.21
2017-09-01T05:40:04.234Z,63.24
2017-09-01T05:40:44.685Z,63.01
2017-09-01T05:41:25.137Z,63.01
2017-09-01T05:42:05.582Z,63.11
2017-09-01T05:42:46.036Z,63.04
2017-09-01T05:43:26.495Z,63.24
2017-09-01T05:44:06.946Z,63.11
2017-09-01T05:44:47.400Z,63.11
2017-09-01T05:45:27.858Z,63.24
2017-09-01T05:46:08.320Z,63.21
2017-09-01T05:46:48.793Z,63.24
2017-09-01T05:47:29.247Z,63.24
2017-09-01T05:48:09.786Z,63.14
2017-09-01T05:48:50.237Z,63.31
2017-09-01T05:49:30.688Z,63.34
2017-09-01T05:50:11.144Z,63.24
2017-09-01T05:50:51.597Z,63.31
2017-09-01T05:51:32.051Z,63.21
2017-09-01T05:52:12.507Z,63.24
2017-09-01T05:52:52.960Z,63.24
2017-09-01T05:53:33.413Z,62.82
2017-09-01T05:54:13.880Z,62.66
2017-09-01T05:54:54.318Z,62.66
2017-09-01T05:55:34.783Z,63.43
2017-09-01T05:56:15.238Z,62.66
2017-09-01T05:56:55.699Z,63.62
2017-09-01T05:57:36.149Z,63.43
2017-09-01T05:58:16.581Z,62.66
2017-09-01T05:58:57.026Z,63.62
2017-09-01T05:59:37.484Z,63.43
2017-09-01T06:00:17.944Z,63.4
2017-09-01T06:00:58.396Z,63.04
2017-09-01T06:01:38.845Z,63.21
2017-09-01T06:02:19.300Z,63.11
2017-09-01T06:02:59.748Z,62.82
2017-09-01T06:03:40.200Z,63.69
2017-09-01T06:04:20.641Z,63.31
2017-09-01T06:05:01.169Z,63.04
2017-09-01T06:05:41.617Z,62.95
2017-09-01T06:06:22.063Z,63.14
2017-09-01T06:07:02.522Z,63.04
2017-09-01T06:07:42.983Z,63.04
2017-09-01T06:08:23.479Z,62.95
2017-09-01T06:09:03.938Z,62.82
2017-09-01T06:09:44.400Z,62.85
2017-09-01T06:10:24.856Z,62.95
2017-09-01T06:11:05.320Z,63.01
2017-09-01T06:11:45.775Z,62.85
2017-09-01T06:12:26.325Z,63.01
2017-09-01T06:13:06.783Z,62.92
2017-09-01T06:13:47.243Z,63.01
2017-09-01T06:14:27.700Z,63.01
2017-09-01T06:15:08.160Z,63.01
2017-09-01T06:15:48.618Z,63.01
2017-09-01T06:16:29.073Z,63.01
2017-09-01T06:17:09.532Z,62.95
2017-09-01T06:17:49.988Z,62.85
2017-09-01T06:18:30.445Z,62.85
2017-09-01T06:19:10.910Z,63.04
2017-09-01T06:19:51.359Z,62.95
2017-09-01T06:20:31.811Z,62.85
2017-09-01T06:21:12.246Z,62.85
2017-09-01T06:21:52.695Z,62.85
2017-09-01T06:22:33.157Z,62.85
2017-09-01T06:23:13.604Z,62.75
2017-09-01T06:23:54.058Z,62.85
2017-09-01T06:24:34.513Z,62.85
2017-09-01T06:25:14.969Z,62.75
2017-09-01T06:25:55.427Z,62.95
2017-09-01T06:26:35.871Z,62.95
2017-09-01T06:27:16.331Z,62.85
2017-09-01T06:27:56.782Z,62.82
2017-09-01T06:28:37.239Z,63.04
2017-09-01T06:29:17.697Z,62.82
2017-09-01T06:29:58.157Z,63.01
2017-09-01T06:30:38.859Z,62.85
2017-09-01T06:31:19.306Z,62.85
2017-09-01T06:31:59.773Z,62.85
2017-09-01T06:32:40.215Z,63.04
2017-09-01T06:33:20.681Z,62.95
2017-09-01T06:34:01.142Z,62.75
2017-09-01T06:34:41.592Z,62.82
2017-09-01T06:35:22.046Z,62.82
2017-09-01T06:36:02.513Z,63.04
2017-09-01T06:36:42.967Z,62.85
2017-09-01T06:37:23.428Z,62.92
2017-09-01T06:38:03.986Z,62.75
2017-09-01T06:38:44.410Z,62.85
2017-09-01T06:39:24.862Z,63.04
2017-09-01T06:40:05.315Z,63.04
2017-09-01T06:40:45.773Z,63.04
2017-09-01T06:41:26.227Z,62.95
2017-09-01T06:42:06.763Z,63.04
2017-09-01T06:42:47.219Z,63.04
2017-09-01T06:43:27.665Z,62.95
2017-09-01T06:44:08.132Z,63.04
2017-09-01T06:44:48.582Z,63.04
2017-09-01T06:45:29.109Z,63.04
2017-09-01T06:46:09.697Z,63.01
2017-09-01T06:46:50.159Z,62.85
2017-09-01T06:47:30.791Z,63.01
2017-09-01T06:48:11.285Z,62.95
2017-09-01T06:48:51.725Z,62.95
2017-09-01T06:49:32.180Z,62.92
2017-09-01T06:50:12.657Z,63.04
2017-09-01T06:50:53.220Z,62.85
2017-09-01T06:51:33.620Z,63.04
2017-09-01T06:52:14.076Z,63.04
2017-09-01T06:52:54.564Z,62.95
2017-09-01T06:53:35.020Z,62.95
2017-09-01T06:54:15.497Z,62.75
2017-09-01T06:54:55.969Z,62.66
2017-09-01T06:55:36.391Z,62.75
2017-09-01T06:56:16.837Z,62.85
2017-09-01T06:56:57.240Z,62.85
2017-09-01T06:59:10.213Z,62.75
2017-09-01T06:59:50.654Z,62.75
2017-09-01T07:00:31.105Z,62.85
2017-09-01T07:01:11.560Z,62.75
2017-09-01T07:01:52.007Z,62.85
2017-09-01T07:02:32.472Z,62.95
2017-09-01T07:03:12.923Z,62.95
2017-09-01T07:03:53.402Z,62.66
2017-09-01T07:04:33.852Z,62.75
2017-09-01T07:05:14.315Z,62.75
2017-09-01T07:05:54.763Z,62.85
2017-09-01T07:06:35.218Z,62.75
2017-09-01T07:07:15.669Z,62.75
2017-09-01T07:07:56.132Z,62.75
2017-09-01T07:08:36.582Z,62.46
2017-09-01T07:09:17.017Z,62.37
2017-09-01T07:09:57.464Z,62.46
2017-09-01T07:10:37.916Z,62.46
2017-09-01T07:11:18.373Z,62.46
2017-09-01T07:11:58.821Z,62.37
2017-09-01T07:12:39.281Z,62.56
2017-09-01T07:13:19.738Z,62.37
2017-09-01T07:14:00.199Z,62.66
2017-09-01T07:14:41.975Z,62.75
2017-09-01T07:15:22.518Z,62.37
2017-09-01T07:16:02.974Z,62.37
2017-09-01T07:16:43.429Z,62.37
2017-09-01T07:17:24.126Z,62.37
2017-09-01T07:18:04.589Z,62.37
2017-09-01T07:18:45.049Z,62.37
2017-09-01T07:19:25.508Z,62.46
2017-09-01T07:20:05.968Z,62.46
2017-09-01T07:20:46.414Z,62.46
2017-09-01T07:21:26.868Z,62.46
2017-09-01T07:22:07.312Z,62.46
2017-09-01T07:22:47.771Z,62.46
2017-09-01T07:23:28.225Z,62.37
2017-09-01T07:24:08.709Z,62.37
2017-09-01T07:24:49.167Z,62.46
2017-09-01T07:25:29.619Z,62.46
2017-09-01T07:26:10.086Z,62.37
2017-09-01T07:26:50.538Z,62.37
2017-09-01T07:27:31.000Z,62.46
2017-09-01T07:28:11.472Z,62.46
2017-09-01T07:30:24.276Z,62.66
2017-09-01T07:31:04.791Z,62.66
2017-09-01T07:31:45.245Z,62.37
2017-09-01T07:32:25.702Z,62.85
2017-09-01T07:33:06.156Z,62.85
2017-09-01T07:33:46.606Z,62.66
2017-09-01T07:34:27.074Z,62.75
2017-09-01T07:35:07.528Z,62.66
2017-09-01T07:35:47.991Z,62.46
2017-09-01T07:36:28.445Z,62.66
2017-09-01T07:37:08.951Z,62.46
2017-09-01T07:37:49.398Z,62.37
2017-09-01T07:38:29.848Z,62.37
2017-09-01T07:39:10.299Z,62.27
2017-09-01T07:39:50.743Z,62.46
2017-09-01T07:40:31.203Z,62.27
2017-09-01T07:41:11.654Z,62.27
2017-09-01T07:41:52.110Z,62.37
2017-09-01T07:42:32.557Z,62.17
2017-09-01T07:43:13.005Z,62.27
2017-09-01T07:43:53.462Z,62.27
2017-09-01T07:44:33.929Z,62.17
2017-09-01T07:45:14.381Z,62.46
2017-09-01T07:45:54.832Z,62.17
2017-09-01T07:46:35.292Z,62.27
2017-09-01T07:47:15.741Z,62.37
2017-09-01T07:47:56.184Z,62.27
2017-09-01T07:48:36.650Z,62.37
2017-09-01T07:49:17.103Z,62.17
2017-09-01T07:49:58.177Z,62.17
2017-09-01T07:50:38.619Z,62.37
2017-09-01T07:51:19.063Z,62.17
2017-09-01T07:51:59.519Z,62.37
2017-09-01T07:52:40.029Z,62.46
2017-09-01T07:53:20.407Z,62.46
2017-09-01T07:54:00.837Z,62.37
2017-09-01T07:54:41.290Z,62.37
2017-09-01T07:55:21.797Z,62.27
2017-09-01T07:56:02.240Z,62.07
2017-09-01T07:56:42.701Z,62.07
2017-09-01T07:57:23.301Z,61.98
2017-09-01T07:58:03.750Z,62.17
2017-09-01T07:58:44.190Z,62.07
2017-09-01T07:59:24.651Z,62.17
2017-09-01T08:00:05.100Z,62.07
2017-09-01T08:00:45.750Z,62.07
2017-09-01T08:01:26.084Z,62.17
2017-09-01T08:02:06.537Z,62.37
2017-09-01T08:02:46.986Z,62.27
2017-09-01T08:03:27.440Z,62.27
2017-09-01T08:04:07.897Z,62.27
2017-09-01T08:04:48.353Z,62.27
2017-09-01T08:05:28.910Z,62.37
2017-09-01T08:06:09.402Z,62.37
2017-09-01T08:06:49.827Z,62.46
2017-09-01T08:07:30.322Z,62.56
2017-09-01T08:08:10.767Z,62.07
2017-09-01T08:08:51.242Z,62.1
2017-09-01T08:09:31.705Z,62.27
2017-09-01T08:10:12.152Z,62.1
2017-09-01T08:10:52.602Z,62.3
2017-09-01T08:11:33.079Z,61.88
2017-09-01T08:12:13.523Z,61.98
2017-09-01T08:12:53.985Z,61.88
2017-09-01T08:13:34.448Z,62.1
2017-09-01T08:14:14.903Z,62.07
2017-09-01T08:14:55.351Z,62.01
2017-09-01T08:15:35.809Z,61.82
2017-09-01T08:16:16.264Z,62.01
2017-09-01T08:16:56.726Z,61.79
2017-09-01T08:17:37.173Z,61.91
2017-09-01T08:18:17.630Z,61.82
2017-09-01T08:18:58.086Z,61.72
2017-09-01T08:19:38.551Z,61.62
2017-09-01T08:20:19.013Z,61.43
2017-09-01T08:20:59.479Z,61.33
2017-09-01T08:21:39.937Z,61.52
2017-09-01T08:22:20.387Z,61.62
2017-09-01T08:23:00.843Z,61.52
2017-09-01T08:23:41.296Z,61.72
2017-09-01T08:24:21.801Z,61.62
2017-09-01T08:25:02.267Z,61.82
2017-09-01T08:25:42.720Z,61.91
2017-09-01T08:26:23.183Z,61.72
2017-09-01T08:27:03.639Z,61.33
2017-09-01T08:27:44.092Z,61.33
2017-09-01T08:28:24.576Z,61.62
2017-09-01T08:29:05.028Z,61.72
2017-09-01T08:29:45.486Z,61.82
2017-09-01T08:30:25.928Z,61.62
2017-09-01T08:31:06.387Z,61.62
2017-09-01T08:31:46.842Z,61.33
2017-09-01T08:32:27.295Z,61.33
2017-09-01T08:33:07.754Z,61.24
2017-09-01T08:33:48.201Z,61.43
2017-09-01T08:34:28.661Z,61.33
2017-09-01T08:35:09.116Z,61.43
2017-09-01T08:35:49.571Z,61.33
2017-09-01T08:36:30.018Z,60.94
2017-09-01T08:37:10.474Z,60.94
2017-09-01T08:37:50.928Z,60.85
2017-09-01T08:38:31.443Z,61.07
2017-09-01T08:39:11.897Z,61.14
2017-09-01T08:39:52.345Z,61.04
2017-09-01T08:40:32.817Z,61.07
2017-09-01T08:41:13.273Z,61.36
2017-09-01T08:41:53.753Z,61.17
2017-09-01T08:42:34.207Z,61.17
2017-09-01T08:43:14.669Z,61.04
2017-09-01T08:43:55.151Z,61.24
2017-09-01T08:44:35.584Z,61.26
2017-09-01T08:45:16.078Z,61.36
2017-09-01T08:45:56.490Z,61.36
2017-09-01T08:46:36.975Z,61.17
2017-09-01T08:47:17.430Z,60.97
2017-09-01T08:47:57.886Z,61.36